PWSweather.com
Personal Weather Stations
Station Observations
SD92115WX
El Cerrito Stoneybluff, San Diego, CA 92115

El Cerrito StoneybluffSan Diego, CA 92115

Lat: 32.754096, Lon: -117.066705

Elevation: 420

Station Type: Davis Vantage Vue

http://stoneybluff.com

High Low Average
Temperature 71.2°F21.8°C 58.3°F14.6°C 63.4°F17.4°C
Dew Point 58.1°F14.5°C 55.2°F12.9°C 56.5°F13.6°C
Winds 8.7 mph 14.0 kmh Calm Calm 4.0 mph SW6.4 kmh SW
Wind Gusts 15.9 mph25.6 kmh -- 8.0 mph12.9 kmh
Humidity 92% 62% 79%
Pressure 29.89 in1012.2 mb 29.81 in1009.5 mb -
Precipitation 0.00 in0.0 mm - -
Hour Temp Dew Point Humidity Winds Wind Gusts Pressure Precip Precip Rate Daily Precip Total
12:03 AM 60.4°F15.8°C 55.2°F12.9°C 83% 3.4 mph SW5.5 kmh SW 6.3 mph10.1 kmh 29.82 in1009.8 mb 0.00 in0.0 mm 0.00 in0.0 mm 0.00 in0.0 mm
12:08 AM 60.4°F15.8°C 55.2°F12.9°C 83% 3.8 mph WSW6.1 kmh WSW 5.4 mph8.7 kmh 29.82 in1009.8 mb 0.00 in0.0 mm 0.00 in0.0 mm 0.00 in0.0 mm
12:13 AM 60.4°F15.8°C 55.2°F12.9°C 83% 3.1 mph SW5.0 kmh SW 6.3 mph10.1 kmh 29.82 in1009.8 mb 0.00 in0.0 mm 0.00 in0.0 mm 0.00 in0.0 mm
12:18 AM 60.4°F15.8°C 55.6°F13.1°C 84% 4.0 mph SSW6.4 kmh SSW 7.4 mph11.9 kmh 29.83 in1010.2 mb 0.00 in0.0 mm 0.00 in0.0 mm 0.00 in0.0 mm
12:23 AM 60.3°F15.7°C 55.4°F13.0°C 84% 3.6 mph WSW5.8 kmh WSW 6.3 mph10.1 kmh 29.83 in1010.2 mb 0.00 in0.0 mm 0.00 in0.0 mm 0.00 in0.0 mm
12:28 AM 60.3°F15.7°C 55.4°F13.0°C 84% 3.6 mph SW5.8 kmh SW 7.4 mph11.9 kmh 29.83 in1010.2 mb 0.00 in0.0 mm 0.00 in0.0 mm 0.00 in0.0 mm
12:33 AM 60.1°F15.6°C 55.2°F12.9°C 84% 3.8 mph WSW6.1 kmh WSW 7.4 mph11.9 kmh 29.82 in1009.8 mb 0.00 in0.0 mm 0.00 in0.0 mm 0.00 in0.0 mm
12:38 AM 60.1°F15.6°C 55.2°F12.9°C 84% 3.8 mph SW6.1 kmh SW 6.3 mph10.1 kmh 29.82 in1009.8 mb 0.00 in0.0 mm 0.00 in0.0 mm 0.00 in0.0 mm
12:43 AM 60.1°F15.6°C 55.2°F12.9°C 84% 2.7 mph SW4.3 kmh SW 5.4 mph8.7 kmh 29.82 in1009.8 mb 0.00 in0.0 mm 0.00 in0.0 mm 0.00 in0.0 mm
12:48 AM 60.1°F15.6°C 55.2°F12.9°C 84% 2.7 mph SW4.3 kmh SW 6.3 mph10.1 kmh 29.82 in1009.8 mb 0.00 in0.0 mm 0.00 in0.0 mm 0.00 in0.0 mm
12:53 AM 60.1°F15.6°C 55.2°F12.9°C 84% 4.3 mph SW6.9 kmh SW 6.3 mph10.1 kmh 29.82 in1009.8 mb 0.00 in0.0 mm 0.00 in0.0 mm 0.00 in0.0 mm
12:58 AM 60.1°F15.6°C 55.2°F12.9°C 84% 5.1 mph SW8.2 kmh SW 8.5 mph13.7 kmh 29.82 in1009.8 mb 0.00 in0.0 mm 0.00 in0.0 mm 0.00 in0.0 mm
01:03 AM 60.1°F15.6°C 55.2°F12.9°C 84% 2.2 mph SSW3.5 kmh SSW 6.3 mph10.1 kmh 29.82 in1009.8 mb 0.00 in0.0 mm 0.00 in0.0 mm 0.00 in0.0 mm
01:08 AM 60.1°F15.6°C 55.2°F12.9°C 84% 2.9 mph SW4.7 kmh SW 6.3 mph10.1 kmh 29.82 in1009.8 mb 0.00 in0.0 mm 0.00 in0.0 mm 0.00 in0.0 mm
01:13 AM 60.1°F15.6°C 55.2°F12.9°C 84% 3.8 mph SSW6.1 kmh SSW 6.3 mph10.1 kmh 29.82 in1009.8 mb 0.00 in0.0 mm 0.00 in0.0 mm 0.00 in0.0 mm
01:18 AM 60.1°F15.6°C 55.6°F13.1°C 85% 3.1 mph SW5.0 kmh SW 6.3 mph10.1 kmh 29.82 in1009.8 mb 0.00 in0.0 mm 0.00 in0.0 mm 0.00 in0.0 mm
01:23 AM 59.9°F15.5°C 55.4°F13.0°C 85% 2.5 mph SSW4.0 kmh SSW 5.4 mph8.7 kmh 29.82 in1009.8 mb 0.00 in0.0 mm 0.00 in0.0 mm 0.00 in0.0 mm
01:28 AM 60.1°F15.6°C 55.6°F13.1°C 85% 1.8 mph SW2.9 kmh SW 4.3 mph6.9 kmh 29.82 in1009.8 mb 0.00 in0.0 mm 0.00 in0.0 mm 0.00 in0.0 mm
01:33 AM 60.1°F15.6°C 55.6°F13.1°C 85% 2.2 mph WSW3.5 kmh WSW 4.3 mph6.9 kmh 29.82 in1009.8 mb 0.00 in0.0 mm 0.00 in0.0 mm 0.00 in0.0 mm
01:38 AM 59.9°F15.5°C 55.4°F13.0°C 85% 0.7 mph S1.1 kmh S 4.3 mph6.9 kmh 29.81 in1009.5 mb 0.00 in0.0 mm 0.00 in0.0 mm 0.00 in0.0 mm
01:43 AM 59.9°F15.5°C 55.4°F13.0°C 85% Calm Calm -- 29.81 in1009.5 mb 0.00 in0.0 mm 0.00 in0.0 mm 0.00 in0.0 mm
01:48 AM 59.9°F15.5°C 55.4°F13.0°C 85% 0.2 mph SSW0.3 kmh SSW 1.1 mph1.8 kmh 29.81 in1009.5 mb 0.00 in0.0 mm 0.00 in0.0 mm 0.00 in0.0 mm
01:58 AM 59.9°F15.5°C 55.4°F13.0°C 85% 0.2 mph SSW0.3 kmh SSW 2.0 mph3.2 kmh 29.81 in1009.5 mb 0.00 in0.0 mm 0.00 in0.0 mm 0.00 in0.0 mm
02:03 AM 59.9°F15.5°C 55.4°F13.0°C 85% 1.1 mph SW1.8 kmh SW 2.0 mph3.2 kmh 29.81 in1009.5 mb 0.00 in0.0 mm 0.00 in0.0 mm 0.00 in0.0 mm
02:08 AM 59.9°F15.5°C 55.4°F13.0°C 85% 1.3 mph SW2.1 kmh SW 4.3 mph6.9 kmh 29.81 in1009.5 mb 0.00 in0.0 mm 0.00 in0.0 mm 0.00 in0.0 mm
02:13 AM 59.7°F15.4°C 55.2°F12.9°C 85% 2.0 mph SW3.2 kmh SW 4.3 mph6.9 kmh 29.81 in1009.5 mb 0.00 in0.0 mm 0.00 in0.0 mm 0.00 in0.0 mm
02:18 AM 59.7°F15.4°C 55.2°F12.9°C 85% 2.0 mph SSW3.2 kmh SSW 5.4 mph8.7 kmh 29.81 in1009.5 mb 0.00 in0.0 mm 0.00 in0.0 mm 0.00 in0.0 mm
02:23 AM 59.7°F15.4°C 55.2°F12.9°C 85% 1.8 mph SW2.9 kmh SW 4.3 mph6.9 kmh 29.81 in1009.5 mb 0.00 in0.0 mm 0.00 in0.0 mm 0.00 in0.0 mm
02:28 AM 59.7°F15.4°C 55.2°F12.9°C 85% 3.4 mph WSW5.5 kmh WSW 5.4 mph8.7 kmh 29.81 in1009.5 mb 0.00 in0.0 mm 0.00 in0.0 mm 0.00 in0.0 mm
02:33 AM 59.7°F15.4°C 55.6°F13.1°C 86% 2.7 mph SSW4.3 kmh SSW 5.4 mph8.7 kmh 29.82 in1009.8 mb 0.00 in0.0 mm 0.00 in0.0 mm 0.00 in0.0 mm
02:38 AM 59.7°F15.4°C 55.6°F13.1°C 86% 4.5 mph SSW7.2 kmh SSW 6.3 mph10.1 kmh 29.82 in1009.8 mb 0.00 in0.0 mm 0.00 in0.0 mm 0.00 in0.0 mm
02:43 AM 59.7°F15.4°C 55.6°F13.1°C 86% 3.6 mph SW5.8 kmh SW 6.3 mph10.1 kmh 29.82 in1009.8 mb 0.00 in0.0 mm 0.00 in0.0 mm 0.00 in0.0 mm
02:48 AM 59.7°F15.4°C 55.6°F13.1°C 86% 3.4 mph SW5.5 kmh SW 6.3 mph10.1 kmh 29.83 in1010.2 mb 0.00 in0.0 mm 0.00 in0.0 mm 0.00 in0.0 mm
02:53 AM 59.7°F15.4°C 55.6°F13.1°C 86% 2.2 mph WSW3.5 kmh WSW 4.3 mph6.9 kmh 29.83 in1010.2 mb 0.00 in0.0 mm 0.00 in0.0 mm 0.00 in0.0 mm
02:58 AM 59.7°F15.4°C 55.6°F13.1°C 86% 2.0 mph SW3.2 kmh SW 4.3 mph6.9 kmh 29.83 in1010.2 mb 0.00 in0.0 mm 0.00 in0.0 mm 0.00 in0.0 mm
03:03 AM 59.7°F15.4°C 55.6°F13.1°C 86% 3.6 mph SW5.8 kmh SW 6.3 mph10.1 kmh 29.82 in1009.8 mb 0.00 in0.0 mm 0.00 in0.0 mm 0.00 in0.0 mm
03:08 AM 59.7°F15.4°C 55.6°F13.1°C 86% 2.0 mph WSW3.2 kmh WSW 5.4 mph8.7 kmh 29.83 in1010.2 mb 0.00 in0.0 mm 0.00 in0.0 mm 0.00 in0.0 mm
03:13 AM 59.9°F15.5°C 55.8°F13.2°C 86% 1.1 mph SSW1.8 kmh SSW 4.3 mph6.9 kmh 29.82 in1009.8 mb 0.00 in0.0 mm 0.00 in0.0 mm 0.00 in0.0 mm
03:18 AM 59.7°F15.4°C 55.6°F13.1°C 86% 2.7 mph SW4.3 kmh SW 4.3 mph6.9 kmh 29.83 in1010.2 mb 0.00 in0.0 mm 0.00 in0.0 mm 0.00 in0.0 mm
03:23 AM 59.9°F15.5°C 55.8°F13.2°C 86% 2.0 mph SW3.2 kmh SW 5.4 mph8.7 kmh 29.83 in1010.2 mb 0.00 in0.0 mm 0.00 in0.0 mm 0.00 in0.0 mm
03:28 AM 59.7°F15.4°C 55.8°F13.2°C 87% 2.2 mph W3.5 kmh W 6.3 mph10.1 kmh 29.83 in1010.2 mb 0.00 in0.0 mm 0.00 in0.0 mm 0.00 in0.0 mm
03:33 AM 59.7°F15.4°C 55.8°F13.2°C 87% 3.1 mph SW5.0 kmh SW 6.3 mph10.1 kmh 29.83 in1010.2 mb 0.00 in0.0 mm 0.00 in0.0 mm 0.00 in0.0 mm
03:38 AM 59.5°F15.3°C 55.9°F13.3°C 88% 2.5 mph WSW4.0 kmh WSW 4.3 mph6.9 kmh 29.83 in1010.2 mb 0.00 in0.0 mm 0.00 in0.0 mm 0.00 in0.0 mm
03:43 AM 59.5°F15.3°C 55.9°F13.3°C 88% 4.3 mph WSW6.9 kmh WSW 6.3 mph10.1 kmh 29.83 in1010.2 mb 0.00 in0.0 mm 0.00 in0.0 mm 0.00 in0.0 mm
03:48 AM 59.4°F15.2°C 56.1°F13.4°C 89% 3.1 mph SW5.0 kmh SW 5.4 mph8.7 kmh 29.83 in1010.2 mb 0.00 in0.0 mm 0.00 in0.0 mm 0.00 in0.0 mm
03:53 AM 59.2°F15.1°C 56.3°F13.5°C 90% 2.2 mph WSW3.5 kmh WSW 6.3 mph10.1 kmh 29.83 in1010.2 mb 0.00 in0.0 mm 0.00 in0.0 mm 0.00 in0.0 mm
03:58 AM 59.0°F15.0°C 56.1°F13.4°C 90% 2.0 mph SW3.2 kmh SW 5.4 mph8.7 kmh 29.83 in1010.2 mb 0.00 in0.0 mm 0.00 in0.0 mm 0.00 in0.0 mm
04:03 AM 58.8°F14.9°C 55.9°F13.3°C 90% 3.1 mph SW5.0 kmh SW 5.4 mph8.7 kmh 29.83 in1010.2 mb 0.00 in0.0 mm 0.00 in0.0 mm 0.00 in0.0 mm
04:08 AM 58.8°F14.9°C 56.1°F13.4°C 91% 2.0 mph SW3.2 kmh SW 5.4 mph8.7 kmh 29.83 in1010.2 mb 0.00 in0.0 mm 0.00 in0.0 mm 0.00 in0.0 mm
04:13 AM 58.6°F14.8°C 55.9°F13.3°C 91% 0.4 mph SW0.6 kmh SW 2.0 mph3.2 kmh 29.83 in1010.2 mb 0.00 in0.0 mm 0.00 in0.0 mm 0.00 in0.0 mm
04:18 AM 58.6°F14.8°C 55.9°F13.3°C 91% 1.3 mph WSW2.1 kmh WSW 3.1 mph5.0 kmh 29.83 in1010.2 mb 0.00 in0.0 mm 0.00 in0.0 mm 0.00 in0.0 mm
04:23 AM 58.6°F14.8°C 55.9°F13.3°C 91% 1.8 mph SW2.9 kmh SW 4.3 mph6.9 kmh 29.83 in1010.2 mb 0.00 in0.0 mm 0.00 in0.0 mm 0.00 in0.0 mm
04:28 AM 58.6°F14.8°C 55.9°F13.3°C 91% 1.8 mph SW2.9 kmh SW 3.1 mph5.0 kmh 29.83 in1010.2 mb 0.00 in0.0 mm 0.00 in0.0 mm 0.00 in0.0 mm
04:33 AM 58.6°F14.8°C 56.3°F13.5°C 92% 1.6 mph SW2.6 kmh SW 3.1 mph5.0 kmh 29.83 in1010.2 mb 0.00 in0.0 mm 0.00 in0.0 mm 0.00 in0.0 mm
04:38 AM 58.5°F14.7°C 56.1°F13.4°C 92% 1.1 mph WSW1.8 kmh WSW 2.0 mph3.2 kmh 29.84 in1010.5 mb 0.00 in0.0 mm 0.00 in0.0 mm 0.00 in0.0 mm
04:43 AM 58.6°F14.8°C 56.3°F13.5°C 92% 0.2 mph SW0.3 kmh SW 2.0 mph3.2 kmh 29.84 in1010.5 mb 0.00 in0.0 mm 0.00 in0.0 mm 0.00 in0.0 mm
04:48 AM 58.6°F14.8°C 56.3°F13.5°C 92% 0.7 mph SW1.1 kmh SW 2.0 mph3.2 kmh 29.84 in1010.5 mb 0.00 in0.0 mm 0.00 in0.0 mm 0.00 in0.0 mm
04:53 AM 58.5°F14.7°C 56.1°F13.4°C 92% 0.4 mph WSW0.6 kmh WSW 3.1 mph5.0 kmh 29.84 in1010.5 mb 0.00 in0.0 mm 0.00 in0.0 mm 0.00 in0.0 mm
04:58 AM 58.5°F14.7°C 56.1°F13.4°C 92% Calm Calm 3.1 mph5.0 kmh 29.84 in1010.5 mb 0.00 in0.0 mm 0.00 in0.0 mm 0.00 in0.0 mm
05:03 AM 58.5°F14.7°C 56.1°F13.4°C 92% Calm Calm -- 29.84 in1010.5 mb 0.00 in0.0 mm 0.00 in0.0 mm 0.00 in0.0 mm
05:08 AM 58.6°F14.8°C 56.3°F13.5°C 92% 1.3 mph SW2.1 kmh SW 2.0 mph3.2 kmh 29.85 in1010.8 mb 0.00 in0.0 mm 0.00 in0.0 mm 0.00 in0.0 mm
05:13 AM 58.6°F14.8°C 56.3°F13.5°C 92% 1.6 mph WSW2.6 kmh WSW 4.3 mph6.9 kmh 29.85 in1010.8 mb 0.00 in0.0 mm 0.00 in0.0 mm 0.00 in0.0 mm
05:18 AM 58.5°F14.7°C 56.1°F13.4°C 92% 1.3 mph SW2.1 kmh SW 4.3 mph6.9 kmh 29.85 in1010.8 mb 0.00 in0.0 mm 0.00 in0.0 mm 0.00 in0.0 mm
05:23 AM 58.5°F14.7°C 56.1°F13.4°C 92% 2.7 mph SW4.3 kmh SW 4.3 mph6.9 kmh 29.85 in1010.8 mb 0.00 in0.0 mm 0.00 in0.0 mm 0.00 in0.0 mm
05:28 AM 58.3°F14.6°C 55.9°F13.3°C 92% 1.6 mph SW2.6 kmh SW 4.3 mph6.9 kmh 29.85 in1010.8 mb 0.00 in0.0 mm 0.00 in0.0 mm 0.00 in0.0 mm
05:33 AM 58.3°F14.6°C 55.9°F13.3°C 92% 2.2 mph SW3.5 kmh SW 3.1 mph5.0 kmh 29.86 in1011.2 mb 0.00 in0.0 mm 0.00 in0.0 mm 0.00 in0.0 mm
05:38 AM 58.5°F14.7°C 56.1°F13.4°C 92% 1.8 mph WSW2.9 kmh WSW 4.3 mph6.9 kmh 29.86 in1011.2 mb 0.00 in0.0 mm 0.00 in0.0 mm 0.00 in0.0 mm
05:43 AM 58.5°F14.7°C 56.1°F13.4°C 92% 2.7 mph SW4.3 kmh SW 4.3 mph6.9 kmh 29.86 in1011.2 mb 0.00 in0.0 mm 0.00 in0.0 mm 0.00 in0.0 mm
05:48 AM 58.5°F14.7°C 56.1°F13.4°C 92% 2.0 mph SW3.2 kmh SW 3.1 mph5.0 kmh 29.86 in1011.2 mb 0.00 in0.0 mm 0.00 in0.0 mm 0.00 in0.0 mm
05:53 AM 58.5°F14.7°C 56.1°F13.4°C 92% 1.1 mph S1.8 kmh S 5.4 mph8.7 kmh 29.86 in1011.2 mb 0.00 in0.0 mm 0.00 in0.0 mm 0.00 in0.0 mm
05:58 AM 58.6°F14.8°C 56.3°F13.5°C 92% 0.9 mph SW1.4 kmh SW 2.0 mph3.2 kmh 29.86 in1011.2 mb 0.00 in0.0 mm 0.00 in0.0 mm 0.00 in0.0 mm
06:03 AM 58.6°F14.8°C 56.3°F13.5°C 92% 0.7 mph SW1.1 kmh SW 4.3 mph6.9 kmh 29.86 in1011.2 mb 0.00 in0.0 mm 0.00 in0.0 mm 0.00 in0.0 mm
06:08 AM 58.6°F14.8°C 56.3°F13.5°C 92% 0.4 mph SSW0.6 kmh SSW 3.1 mph5.0 kmh 29.86 in1011.2 mb 0.00 in0.0 mm 0.00 in0.0 mm 0.00 in0.0 mm
06:13 AM 58.6°F14.8°C 56.3°F13.5°C 92% 1.6 mph W2.6 kmh W 4.3 mph6.9 kmh 29.86 in1011.2 mb 0.00 in0.0 mm 0.00 in0.0 mm 0.00 in0.0 mm
06:18 AM 58.8°F14.9°C 56.5°F13.6°C 92% 1.8 mph WSW2.9 kmh WSW 3.1 mph5.0 kmh 29.86 in1011.2 mb 0.00 in0.0 mm 0.00 in0.0 mm 0.00 in0.0 mm
06:23 AM 58.8°F14.9°C 56.5°F13.6°C 92% 0.2 mph SSW0.3 kmh SSW 2.0 mph3.2 kmh 29.86 in1011.2 mb 0.00 in0.0 mm 0.00 in0.0 mm 0.00 in0.0 mm
06:28 AM 59.0°F15.0°C 56.7°F13.7°C 92% Calm Calm 3.1 mph5.0 kmh 29.86 in1011.2 mb 0.00 in0.0 mm 0.00 in0.0 mm 0.00 in0.0 mm
06:33 AM 59.2°F15.1°C 56.5°F13.6°C 91% 1.6 mph S2.6 kmh S 4.3 mph6.9 kmh 29.86 in1011.2 mb 0.00 in0.0 mm 0.00 in0.0 mm 0.00 in0.0 mm
06:38 AM 59.2°F15.1°C 56.5°F13.6°C 91% 1.1 mph WSW1.8 kmh WSW 4.3 mph6.9 kmh 29.86 in1011.2 mb 0.00 in0.0 mm 0.00 in0.0 mm 0.00 in0.0 mm
06:43 AM 59.4°F15.2°C 56.7°F13.7°C 91% 1.1 mph W1.8 kmh W 4.3 mph6.9 kmh 29.86 in1011.2 mb 0.00 in0.0 mm 0.00 in0.0 mm 0.00 in0.0 mm
06:48 AM 59.4°F15.2°C 56.7°F13.7°C 91% 0.7 mph W1.1 kmh W 3.1 mph5.0 kmh 29.86 in1011.2 mb 0.00 in0.0 mm 0.00 in0.0 mm 0.00 in0.0 mm
06:53 AM 59.5°F15.3°C 56.7°F13.7°C 90% 1.6 mph SW2.6 kmh SW 3.1 mph5.0 kmh 29.86 in1011.2 mb 0.00 in0.0 mm 0.00 in0.0 mm 0.00 in0.0 mm
06:58 AM 59.5°F15.3°C 56.7°F13.7°C 90% Calm Calm 2.0 mph3.2 kmh 29.86 in1011.2 mb 0.00 in0.0 mm 0.00 in0.0 mm 0.00 in0.0 mm
07:03 AM 59.7°F15.4°C 56.8°F13.8°C 90% 1.8 mph SW2.9 kmh SW 3.1 mph5.0 kmh 29.85 in1010.8 mb 0.00 in0.0 mm 0.00 in0.0 mm 0.00 in0.0 mm
07:08 AM 60.1°F15.6°C 57.2°F14.0°C 90% Calm Calm 4.3 mph6.9 kmh 29.86 in1011.2 mb 0.00 in0.0 mm 0.00 in0.0 mm 0.00 in0.0 mm
07:13 AM 60.3°F15.7°C 57.0°F13.9°C 89% 2.0 mph SSE3.2 kmh SSE 5.4 mph8.7 kmh 29.86 in1011.2 mb 0.00 in0.0 mm 0.00 in0.0 mm 0.00 in0.0 mm
07:18 AM 60.6°F15.9°C 57.4°F14.1°C 89% 1.3 mph WSW2.1 kmh WSW 4.3 mph6.9 kmh 29.86 in1011.2 mb 0.00 in0.0 mm 0.00 in0.0 mm 0.00 in0.0 mm
07:23 AM 60.8°F16.0°C 57.2°F14.0°C 88% 0.2 mph WSW0.3 kmh WSW 3.1 mph5.0 kmh 29.86 in1011.2 mb 0.00 in0.0 mm 0.00 in0.0 mm 0.00 in0.0 mm
07:28 AM 61.2°F16.2°C 57.2°F14.0°C 87% 2.9 mph SSE4.7 kmh SSE 5.4 mph8.7 kmh 29.86 in1011.2 mb 0.00 in0.0 mm 0.00 in0.0 mm 0.00 in0.0 mm
07:33 AM 61.3°F16.3°C 57.4°F14.1°C 87% 2.0 mph SSW3.2 kmh SSW 4.3 mph6.9 kmh 29.86 in1011.2 mb 0.00 in0.0 mm 0.00 in0.0 mm 0.00 in0.0 mm
07:38 AM 61.5°F16.4°C 57.4°F14.1°C 86% 1.8 mph WSW2.9 kmh WSW 7.4 mph11.9 kmh 29.86 in1011.2 mb 0.00 in0.0 mm 0.00 in0.0 mm 0.00 in0.0 mm
07:43 AM 61.3°F16.3°C 57.2°F14.0°C 86% 3.1 mph SW5.0 kmh SW 6.3 mph10.1 kmh 29.87 in1011.5 mb 0.00 in0.0 mm 0.00 in0.0 mm 0.00 in0.0 mm
07:48 AM 61.5°F16.4°C 57.4°F14.1°C 86% 2.5 mph SW4.0 kmh SW 6.3 mph10.1 kmh 29.86 in1011.2 mb 0.00 in0.0 mm 0.00 in0.0 mm 0.00 in0.0 mm
07:53 AM 62.1°F16.7°C 57.7°F14.3°C 86% 3.4 mph SW5.5 kmh SW 5.4 mph8.7 kmh 29.87 in1011.5 mb 0.00 in0.0 mm 0.00 in0.0 mm 0.00 in0.0 mm
07:58 AM 62.1°F16.7°C 56.8°F13.8°C 83% 3.6 mph SW5.8 kmh SW 7.4 mph11.9 kmh 29.87 in1011.5 mb 0.00 in0.0 mm 0.00 in0.0 mm 0.00 in0.0 mm
08:03 AM 62.2°F16.8°C 57.4°F14.1°C 84% 1.1 mph WSW1.8 kmh WSW 7.4 mph11.9 kmh 29.87 in1011.5 mb 0.00 in0.0 mm 0.00 in0.0 mm 0.00 in0.0 mm
08:08 AM 63.0°F17.2°C 57.7°F14.3°C 83% 3.6 mph W5.8 kmh W 6.3 mph10.1 kmh 29.87 in1011.5 mb 0.00 in0.0 mm 0.00 in0.0 mm 0.00 in0.0 mm
08:13 AM 62.8°F17.1°C 57.2°F14.0°C 82% 4.9 mph NNW7.9 kmh NNW 8.5 mph13.7 kmh 29.87 in1011.5 mb 0.00 in0.0 mm 0.00 in0.0 mm 0.00 in0.0 mm
08:18 AM 62.4°F16.9°C 57.2°F14.0°C 83% 3.8 mph SW6.1 kmh SW 7.4 mph11.9 kmh 29.87 in1011.5 mb 0.00 in0.0 mm 0.00 in0.0 mm 0.00 in0.0 mm
08:23 AM 62.4°F16.9°C 57.2°F14.0°C 83% 4.0 mph S6.4 kmh S 8.5 mph13.7 kmh 29.87 in1011.5 mb 0.00 in0.0 mm 0.00 in0.0 mm 0.00 in0.0 mm
08:28 AM 62.6°F17.0°C 57.0°F13.9°C 82% 3.6 mph SW5.8 kmh SW 7.4 mph11.9 kmh 29.87 in1011.5 mb 0.00 in0.0 mm 0.00 in0.0 mm 0.00 in0.0 mm
08:33 AM 62.4°F16.9°C 56.8°F13.8°C 82% 2.5 mph SW4.0 kmh SW 8.5 mph13.7 kmh 29.87 in1011.5 mb 0.00 in0.0 mm 0.00 in0.0 mm 0.00 in0.0 mm
08:38 AM 62.6°F17.0°C 56.7°F13.7°C 81% 3.1 mph SW5.0 kmh SW 7.4 mph11.9 kmh 29.87 in1011.5 mb 0.00 in0.0 mm 0.00 in0.0 mm 0.00 in0.0 mm
08:43 AM 62.8°F17.1°C 56.5°F13.6°C 80% 2.9 mph SW4.7 kmh SW 7.4 mph11.9 kmh 29.87 in1011.5 mb 0.00 in0.0 mm 0.00 in0.0 mm 0.00 in0.0 mm
08:48 AM 63.0°F17.2°C 56.7°F13.7°C 80% 4.5 mph SW7.2 kmh SW 8.5 mph13.7 kmh 29.87 in1011.5 mb 0.00 in0.0 mm 0.00 in0.0 mm 0.00 in0.0 mm
08:53 AM 62.8°F17.1°C 56.5°F13.6°C 80% 2.7 mph SW4.3 kmh SW 7.4 mph11.9 kmh 29.87 in1011.5 mb 0.00 in0.0 mm 0.00 in0.0 mm 0.00 in0.0 mm
08:58 AM 62.8°F17.1°C 56.5°F13.6°C 80% 3.1 mph S5.0 kmh S 6.3 mph10.1 kmh 29.87 in1011.5 mb 0.00 in0.0 mm 0.00 in0.0 mm 0.00 in0.0 mm
09:03 AM 62.8°F17.1°C 56.1°F13.4°C 79% 3.6 mph WSW5.8 kmh WSW 6.3 mph10.1 kmh 29.87 in1011.5 mb 0.00 in0.0 mm 0.00 in0.0 mm 0.00 in0.0 mm
09:08 AM 62.8°F17.1°C 56.1°F13.4°C 79% 4.9 mph SSW7.9 kmh SSW 8.5 mph13.7 kmh 29.87 in1011.5 mb 0.00 in0.0 mm 0.00 in0.0 mm 0.00 in0.0 mm
09:13 AM 63.0°F17.2°C 56.3°F13.5°C 79% 2.5 mph WSW4.0 kmh WSW 5.4 mph8.7 kmh 29.87 in1011.5 mb 0.00 in0.0 mm 0.00 in0.0 mm 0.00 in0.0 mm
09:18 AM 63.1°F17.3°C 56.5°F13.6°C 79% 2.7 mph WNW4.3 kmh WNW 7.4 mph11.9 kmh 29.87 in1011.5 mb 0.00 in0.0 mm 0.00 in0.0 mm 0.00 in0.0 mm
09:23 AM 63.3°F17.4°C 56.7°F13.7°C 79% 2.5 mph SSW4.0 kmh SSW 4.3 mph6.9 kmh 29.87 in1011.5 mb 0.00 in0.0 mm 0.00 in0.0 mm 0.00 in0.0 mm
09:28 AM 63.7°F17.6°C 56.7°F13.7°C 78% 3.8 mph SW6.1 kmh SW 7.4 mph11.9 kmh 29.87 in1011.5 mb 0.00 in0.0 mm 0.00 in0.0 mm 0.00 in0.0 mm
09:33 AM 63.9°F17.7°C 56.5°F13.6°C 77% 4.3 mph WSW6.9 kmh WSW 8.5 mph13.7 kmh 29.87 in1011.5 mb 0.00 in0.0 mm 0.00 in0.0 mm 0.00 in0.0 mm
09:38 AM 63.7°F17.6°C 56.3°F13.5°C 77% 2.9 mph SW4.7 kmh SW 9.6 mph15.4 kmh 29.87 in1011.5 mb 0.00 in0.0 mm 0.00 in0.0 mm 0.00 in0.0 mm
09:43 AM 63.9°F17.7°C 56.1°F13.4°C 76% 3.4 mph S5.5 kmh S 6.3 mph10.1 kmh 29.87 in1011.5 mb 0.00 in0.0 mm 0.00 in0.0 mm 0.00 in0.0 mm
09:48 AM 64.0°F17.8°C 56.3°F13.5°C 76% 3.8 mph SW6.1 kmh SW 8.5 mph13.7 kmh 29.88 in1011.9 mb 0.00 in0.0 mm 0.00 in0.0 mm 0.00 in0.0 mm
09:53 AM 64.2°F17.9°C 56.5°F13.6°C 76% 6.7 mph SSW10.8 kmh SSW 11.6 mph18.7 kmh 29.88 in1011.9 mb 0.00 in0.0 mm 0.00 in0.0 mm 0.00 in0.0 mm
09:58 AM 64.6°F18.1°C 56.5°F13.6°C 75% 4.3 mph S6.9 kmh S 8.5 mph13.7 kmh 29.88 in1011.9 mb 0.00 in0.0 mm 0.00 in0.0 mm 0.00 in0.0 mm
10:03 AM 64.6°F18.1°C 56.5°F13.6°C 75% 4.3 mph SW6.9 kmh SW 8.5 mph13.7 kmh 29.88 in1011.9 mb 0.00 in0.0 mm 0.00 in0.0 mm 0.00 in0.0 mm
10:08 AM 64.9°F18.3°C 56.5°F13.6°C 74% 6.0 mph WSW9.7 kmh WSW 10.5 mph16.9 kmh 29.88 in1011.9 mb 0.00 in0.0 mm 0.00 in0.0 mm 0.00 in0.0 mm
10:13 AM 65.1°F18.4°C 56.7°F13.7°C 74% 4.9 mph SW7.9 kmh SW 10.5 mph16.9 kmh 29.88 in1011.9 mb 0.00 in0.0 mm 0.00 in0.0 mm 0.00 in0.0 mm
10:18 AM 65.1°F18.4°C 56.3°F13.5°C 73% 2.7 mph SW4.3 kmh SW 12.8 mph20.6 kmh 29.88 in1011.9 mb 0.00 in0.0 mm 0.00 in0.0 mm 0.00 in0.0 mm
10:23 AM 65.5°F18.6°C 56.3°F13.5°C 72% 4.5 mph SSW7.2 kmh SSW 10.5 mph16.9 kmh 29.88 in1011.9 mb 0.00 in0.0 mm 0.00 in0.0 mm 0.00 in0.0 mm
10:28 AM 65.8°F18.8°C 56.5°F13.6°C 72% 8.7 mph SW14.0 kmh SW 13.9 mph22.4 kmh 29.88 in1011.9 mb 0.00 in0.0 mm 0.00 in0.0 mm 0.00 in0.0 mm
10:33 AM 66.2°F19.0°C 56.5°F13.6°C 71% 6.9 mph SSW11.1 kmh SSW 12.8 mph20.6 kmh 29.88 in1011.9 mb 0.00 in0.0 mm 0.00 in0.0 mm 0.00 in0.0 mm
10:38 AM 66.6°F19.2°C 56.5°F13.6°C 70% 7.8 mph SSW12.6 kmh SSW 12.8 mph20.6 kmh 29.88 in1011.9 mb 0.00 in0.0 mm 0.00 in0.0 mm 0.00 in0.0 mm
10:43 AM 66.7°F19.3°C 56.7°F13.7°C 70% 6.0 mph SSW9.7 kmh SSW 12.8 mph20.6 kmh 29.89 in1012.2 mb 0.00 in0.0 mm 0.00 in0.0 mm 0.00 in0.0 mm
10:48 AM 66.7°F19.3°C 56.3°F13.5°C 69% 7.8 mph SW12.6 kmh SW 12.8 mph20.6 kmh 29.89 in1012.2 mb 0.00 in0.0 mm 0.00 in0.0 mm 0.00 in0.0 mm
10:53 AM 67.5°F19.7°C 57.4°F14.1°C 70% 4.9 mph SE7.9 kmh SE 12.8 mph20.6 kmh 29.89 in1012.2 mb 0.00 in0.0 mm 0.00 in0.0 mm 0.00 in0.0 mm
10:58 AM 67.8°F19.9°C 56.1°F13.4°C 66% 6.7 mph SW10.8 kmh SW 10.5 mph16.9 kmh 29.89 in1012.2 mb 0.00 in0.0 mm 0.00 in0.0 mm 0.00 in0.0 mm
11:03 AM 67.8°F19.9°C 56.5°F13.6°C 67% 7.8 mph S12.6 kmh S 11.6 mph18.7 kmh 29.89 in1012.2 mb 0.00 in0.0 mm 0.00 in0.0 mm 0.00 in0.0 mm
11:08 AM 68.5°F20.3°C 56.7°F13.7°C 66% 4.7 mph SW7.6 kmh SW 9.6 mph15.4 kmh 29.88 in1011.9 mb 0.00 in0.0 mm 0.00 in0.0 mm 0.00 in0.0 mm
11:13 AM 68.4°F20.2°C 56.5°F13.6°C 66% 6.9 mph SSW11.1 kmh SSW 13.9 mph22.4 kmh 29.89 in1012.2 mb 0.00 in0.0 mm 0.00 in0.0 mm 0.00 in0.0 mm
11:18 AM 67.8°F19.9°C 56.1°F13.4°C 66% 2.9 mph SSW4.7 kmh SSW 11.6 mph18.7 kmh 29.89 in1012.2 mb 0.00 in0.0 mm 0.00 in0.0 mm 0.00 in0.0 mm
11:23 AM 67.6°F19.8°C 55.9°F13.3°C 66% 7.6 mph SW12.2 kmh SW 11.6 mph18.7 kmh 29.89 in1012.2 mb 0.00 in0.0 mm 0.00 in0.0 mm 0.00 in0.0 mm
11:28 AM 66.9°F19.4°C 55.9°F13.3°C 68% 2.7 mph SW4.3 kmh SW 10.5 mph16.9 kmh 29.88 in1011.9 mb 0.00 in0.0 mm 0.00 in0.0 mm 0.00 in0.0 mm
11:33 AM 67.3°F19.6°C 55.9°F13.3°C 67% 2.7 mph WNW4.3 kmh WNW 9.6 mph15.4 kmh 29.88 in1011.9 mb 0.00 in0.0 mm 0.00 in0.0 mm 0.00 in0.0 mm
11:38 AM 68.2°F20.1°C 56.3°F13.5°C 66% 5.4 mph WSW8.7 kmh WSW 8.5 mph13.7 kmh 29.88 in1011.9 mb 0.00 in0.0 mm 0.00 in0.0 mm 0.00 in0.0 mm
11:43 AM 67.8°F19.9°C 56.5°F13.6°C 67% 4.0 mph SSW6.4 kmh SSW 9.6 mph15.4 kmh 29.88 in1011.9 mb 0.00 in0.0 mm 0.00 in0.0 mm 0.00 in0.0 mm
11:48 AM 67.6°F19.8°C 56.3°F13.5°C 67% 4.7 mph SSW7.6 kmh SSW 10.5 mph16.9 kmh 29.88 in1011.9 mb 0.00 in0.0 mm 0.00 in0.0 mm 0.00 in0.0 mm
11:53 AM 67.6°F19.8°C 56.3°F13.5°C 67% 3.8 mph SE6.1 kmh SE 13.9 mph22.4 kmh 29.88 in1011.9 mb 0.00 in0.0 mm 0.00 in0.0 mm 0.00 in0.0 mm
11:58 AM 67.5°F19.7°C 56.5°F13.6°C 68% 7.4 mph SSW11.9 kmh SSW 11.6 mph18.7 kmh 29.88 in1011.9 mb 0.00 in0.0 mm 0.00 in0.0 mm 0.00 in0.0 mm
12:03 PM 67.5°F19.7°C 57.0°F13.9°C 69% 4.7 mph W7.6 kmh W 15.9 mph25.6 kmh 29.88 in1011.9 mb 0.00 in0.0 mm 0.00 in0.0 mm 0.00 in0.0 mm
12:08 PM 67.5°F19.7°C 57.0°F13.9°C 69% 6.0 mph WSW9.7 kmh WSW 13.9 mph22.4 kmh 29.88 in1011.9 mb 0.00 in0.0 mm 0.00 in0.0 mm 0.00 in0.0 mm
12:13 PM 67.5°F19.7°C 57.4°F14.1°C 70% 3.1 mph SW5.0 kmh SW 13.9 mph22.4 kmh 29.88 in1011.9 mb 0.00 in0.0 mm 0.00 in0.0 mm 0.00 in0.0 mm
12:18 PM 67.5°F19.7°C 57.0°F13.9°C 69% 6.7 mph NW10.8 kmh NW 9.6 mph15.4 kmh 29.88 in1011.9 mb 0.00 in0.0 mm 0.00 in0.0 mm 0.00 in0.0 mm
12:23 PM 66.9°F19.4°C 56.5°F13.6°C 69% 4.3 mph SW6.9 kmh SW 9.6 mph15.4 kmh 29.88 in1011.9 mb 0.00 in0.0 mm 0.00 in0.0 mm 0.00 in0.0 mm
12:28 PM 67.5°F19.7°C 57.4°F14.1°C 70% 5.4 mph WSW8.7 kmh WSW 11.6 mph18.7 kmh 29.88 in1011.9 mb 0.00 in0.0 mm 0.00 in0.0 mm 0.00 in0.0 mm
12:33 PM 67.5°F19.7°C 57.0°F13.9°C 69% 3.1 mph WSW5.0 kmh WSW 11.6 mph18.7 kmh 29.88 in1011.9 mb 0.00 in0.0 mm 0.00 in0.0 mm 0.00 in0.0 mm
12:38 PM 68.4°F20.2°C 57.4°F14.1°C 68% 4.3 mph SW6.9 kmh SW 10.5 mph16.9 kmh 29.88 in1011.9 mb 0.00 in0.0 mm 0.00 in0.0 mm 0.00 in0.0 mm
12:43 PM 68.9°F20.5°C 57.9°F14.4°C 68% 6.3 mph SW10.1 kmh SW 12.8 mph20.6 kmh 29.88 in1011.9 mb 0.00 in0.0 mm 0.00 in0.0 mm 0.00 in0.0 mm
12:48 PM 68.7°F20.4°C 56.8°F13.8°C 66% 6.5 mph SW10.5 kmh SW 10.5 mph16.9 kmh 29.88 in1011.9 mb 0.00 in0.0 mm 0.00 in0.0 mm 0.00 in0.0 mm
12:53 PM 69.4°F20.8°C 57.2°F14.0°C 65% 5.4 mph SW8.7 kmh SW 11.6 mph18.7 kmh 29.88 in1011.9 mb 0.00 in0.0 mm 0.00 in0.0 mm 0.00 in0.0 mm
12:58 PM 70.2°F21.2°C 57.4°F14.1°C 64% 4.5 mph SW7.2 kmh SW 10.5 mph16.9 kmh 29.88 in1011.9 mb 0.00 in0.0 mm 0.00 in0.0 mm 0.00 in0.0 mm
01:03 PM 70.3°F21.3°C 57.6°F14.2°C 64% 7.4 mph SW11.9 kmh SW 11.6 mph18.7 kmh 29.88 in1011.9 mb 0.00 in0.0 mm 0.00 in0.0 mm 0.00 in0.0 mm
01:08 PM 70.2°F21.2°C 57.0°F13.9°C 63% 6.3 mph S10.1 kmh S 11.6 mph18.7 kmh 29.88 in1011.9 mb 0.00 in0.0 mm 0.00 in0.0 mm 0.00 in0.0 mm
01:13 PM 70.0°F21.1°C 57.2°F14.0°C 64% 7.6 mph SW12.2 kmh SW 13.9 mph22.4 kmh 29.88 in1011.9 mb 0.00 in0.0 mm 0.00 in0.0 mm 0.00 in0.0 mm
01:18 PM 69.6°F20.9°C 57.4°F14.1°C 65% 4.5 mph SSW7.2 kmh SSW 10.5 mph16.9 kmh 29.88 in1011.9 mb 0.00 in0.0 mm 0.00 in0.0 mm 0.00 in0.0 mm
01:23 PM 70.3°F21.3°C 57.2°F14.0°C 63% 6.3 mph WSW10.1 kmh WSW 11.6 mph18.7 kmh 29.88 in1011.9 mb 0.00 in0.0 mm 0.00 in0.0 mm 0.00 in0.0 mm
01:28 PM 69.6°F20.9°C 56.8°F13.8°C 64% 4.7 mph WSW7.6 kmh WSW 9.6 mph15.4 kmh 29.88 in1011.9 mb 0.00 in0.0 mm 0.00 in0.0 mm 0.00 in0.0 mm
01:33 PM 69.4°F20.8°C 56.7°F13.7°C 64% 5.6 mph WNW9.0 kmh WNW 10.5 mph16.9 kmh 29.88 in1011.9 mb 0.00 in0.0 mm 0.00 in0.0 mm 0.00 in0.0 mm
01:38 PM 69.1°F20.6°C 57.2°F14.0°C 66% 7.2 mph WSW11.6 kmh WSW 12.8 mph20.6 kmh 29.88 in1011.9 mb 0.00 in0.0 mm 0.00 in0.0 mm 0.00 in0.0 mm
01:43 PM 69.3°F20.7°C 57.4°F14.1°C 66% 6.5 mph WSW10.5 kmh WSW 12.8 mph20.6 kmh 29.87 in1011.5 mb 0.00 in0.0 mm 0.00 in0.0 mm 0.00 in0.0 mm
01:48 PM 69.4°F20.8°C 57.2°F14.0°C 65% 6.7 mph SW10.8 kmh SW 14.8 mph23.8 kmh 29.87 in1011.5 mb 0.00 in0.0 mm 0.00 in0.0 mm 0.00 in0.0 mm
01:53 PM 69.6°F20.9°C 56.8°F13.8°C 64% 6.0 mph SW9.7 kmh SW 10.5 mph16.9 kmh 29.87 in1011.5 mb 0.00 in0.0 mm 0.00 in0.0 mm 0.00 in0.0 mm
01:58 PM 70.3°F21.3°C 56.7°F13.7°C 62% 4.7 mph WSW7.6 kmh WSW 10.5 mph16.9 kmh 29.87 in1011.5 mb 0.00 in0.0 mm 0.00 in0.0 mm 0.00 in0.0 mm
02:03 PM 70.9°F21.6°C 57.7°F14.3°C 63% 4.9 mph WSW7.9 kmh WSW 10.5 mph16.9 kmh 29.87 in1011.5 mb 0.00 in0.0 mm 0.00 in0.0 mm 0.00 in0.0 mm
02:08 PM 70.3°F21.3°C 57.2°F14.0°C 63% 8.1 mph W13.0 kmh W 14.8 mph23.8 kmh 29.87 in1011.5 mb 0.00 in0.0 mm 0.00 in0.0 mm 0.00 in0.0 mm
02:13 PM 70.5°F21.4°C 56.8°F13.8°C 62% 6.0 mph SW9.7 kmh SW 9.6 mph15.4 kmh 29.87 in1011.5 mb 0.00 in0.0 mm 0.00 in0.0 mm 0.00 in0.0 mm
02:18 PM 70.5°F21.4°C 57.4°F14.1°C 63% 5.4 mph SW8.7 kmh SW 10.5 mph16.9 kmh 29.87 in1011.5 mb 0.00 in0.0 mm 0.00 in0.0 mm 0.00 in0.0 mm
02:23 PM 70.5°F21.4°C 57.4°F14.1°C 63% 6.9 mph SW11.1 kmh SW 11.6 mph18.7 kmh 29.87 in1011.5 mb 0.00 in0.0 mm 0.00 in0.0 mm 0.00 in0.0 mm
02:28 PM 71.1°F21.7°C 57.4°F14.1°C 62% 4.9 mph SW7.9 kmh SW 11.6 mph18.7 kmh 29.87 in1011.5 mb 0.00 in0.0 mm 0.00 in0.0 mm 0.00 in0.0 mm
02:33 PM 71.1°F21.7°C 57.4°F14.1°C 62% 5.1 mph NW8.2 kmh NW 12.8 mph20.6 kmh 29.87 in1011.5 mb 0.00 in0.0 mm 0.00 in0.0 mm 0.00 in0.0 mm
02:38 PM 70.3°F21.3°C 57.6°F14.2°C 64% 5.8 mph SW9.3 kmh SW 9.6 mph15.4 kmh 29.87 in1011.5 mb 0.00 in0.0 mm 0.00 in0.0 mm 0.00 in0.0 mm
02:43 PM 70.3°F21.3°C 58.1°F14.5°C 65% 4.5 mph W7.2 kmh W 9.6 mph15.4 kmh 29.87 in1011.5 mb 0.00 in0.0 mm 0.00 in0.0 mm 0.00 in0.0 mm
02:48 PM 71.1°F21.7°C 57.7°F14.3°C 63% 5.8 mph WSW9.3 kmh WSW 10.5 mph16.9 kmh 29.86 in1011.2 mb 0.00 in0.0 mm 0.00 in0.0 mm 0.00 in0.0 mm
02:53 PM 71.2°F21.8°C 57.9°F14.4°C 63% 4.0 mph WSW6.4 kmh WSW 10.5 mph16.9 kmh 29.86 in1011.2 mb 0.00 in0.0 mm 0.00 in0.0 mm 0.00 in0.0 mm
02:58 PM 70.3°F21.3°C 57.6°F14.2°C 64% 1.8 mph SW2.9 kmh SW 8.5 mph13.7 kmh 29.86 in1011.2 mb 0.00 in0.0 mm 0.00 in0.0 mm 0.00 in0.0 mm
03:03 PM 70.3°F21.3°C 57.6°F14.2°C 64% 5.6 mph WSW9.0 kmh WSW 8.5 mph13.7 kmh 29.86 in1011.2 mb 0.00 in0.0 mm 0.00 in0.0 mm 0.00 in0.0 mm
03:08 PM 70.0°F21.1°C 57.7°F14.3°C 65% 5.8 mph W9.3 kmh W 10.5 mph16.9 kmh 29.86 in1011.2 mb 0.00 in0.0 mm 0.00 in0.0 mm 0.00 in0.0 mm
03:13 PM 69.6°F20.9°C 58.1°F14.5°C 67% 4.3 mph WSW6.9 kmh WSW 9.6 mph15.4 kmh 29.86 in1011.2 mb 0.00 in0.0 mm 0.00 in0.0 mm 0.00 in0.0 mm
03:18 PM 69.3°F20.7°C 57.4°F14.1°C 66% 5.1 mph W8.2 kmh W 9.6 mph15.4 kmh 29.86 in1011.2 mb 0.00 in0.0 mm 0.00 in0.0 mm 0.00 in0.0 mm
03:23 PM 69.1°F20.6°C 57.7°F14.3°C 67% 2.5 mph WSW4.0 kmh WSW 14.8 mph23.8 kmh 29.86 in1011.2 mb 0.00 in0.0 mm 0.00 in0.0 mm 0.00 in0.0 mm
03:28 PM 69.1°F20.6°C 57.7°F14.3°C 67% 6.5 mph SW10.5 kmh SW 11.6 mph18.7 kmh 29.86 in1011.2 mb 0.00 in0.0 mm 0.00 in0.0 mm 0.00 in0.0 mm
03:33 PM 69.4°F20.8°C 57.6°F14.2°C 66% 6.3 mph WSW10.1 kmh WSW 9.6 mph15.4 kmh 29.87 in1011.5 mb 0.00 in0.0 mm 0.00 in0.0 mm 0.00 in0.0 mm
03:38 PM 69.1°F20.6°C 57.7°F14.3°C 67% 4.5 mph W7.2 kmh W 13.9 mph22.4 kmh 29.87 in1011.5 mb 0.00 in0.0 mm 0.00 in0.0 mm 0.00 in0.0 mm
03:43 PM 69.3°F20.7°C 57.9°F14.4°C 67% 5.4 mph WSW8.7 kmh WSW 10.5 mph16.9 kmh 29.87 in1011.5 mb 0.00 in0.0 mm 0.00 in0.0 mm 0.00 in0.0 mm
03:48 PM 69.8°F21.0°C 57.9°F14.4°C 66% 6.5 mph WSW10.5 kmh WSW 11.6 mph18.7 kmh 29.86 in1011.2 mb 0.00 in0.0 mm 0.00 in0.0 mm 0.00 in0.0 mm
03:53 PM 69.1°F20.6°C 58.1°F14.5°C 68% 5.1 mph N8.2 kmh N 12.8 mph20.6 kmh 29.87 in1011.5 mb 0.00 in0.0 mm 0.00 in0.0 mm 0.00 in0.0 mm
03:58 PM 68.5°F20.3°C 57.6°F14.2°C 68% 7.2 mph W11.6 kmh W 13.9 mph22.4 kmh 29.87 in1011.5 mb 0.00 in0.0 mm 0.00 in0.0 mm 0.00 in0.0 mm
04:03 PM 67.8°F19.9°C 57.7°F14.3°C 70% 4.9 mph NW7.9 kmh NW 12.8 mph20.6 kmh 29.87 in1011.5 mb 0.00 in0.0 mm 0.00 in0.0 mm 0.00 in0.0 mm
04:08 PM 67.8°F19.9°C 57.2°F14.0°C 69% 6.0 mph WNW9.7 kmh WNW 9.6 mph15.4 kmh 29.87 in1011.5 mb 0.00 in0.0 mm 0.00 in0.0 mm 0.00 in0.0 mm
04:13 PM 67.6°F19.8°C 57.9°F14.4°C 71% 4.3 mph W6.9 kmh W 8.5 mph13.7 kmh 29.87 in1011.5 mb 0.00 in0.0 mm 0.00 in0.0 mm 0.00 in0.0 mm
04:18 PM 67.3°F19.6°C 57.6°F14.2°C 71% 5.8 mph NW9.3 kmh NW 12.8 mph20.6 kmh 29.87 in1011.5 mb 0.00 in0.0 mm 0.00 in0.0 mm 0.00 in0.0 mm
04:23 PM 66.9°F19.4°C 57.2°F14.0°C 71% 5.1 mph NW8.2 kmh NW 9.6 mph15.4 kmh 29.87 in1011.5 mb 0.00 in0.0 mm 0.00 in0.0 mm 0.00 in0.0 mm
04:28 PM 66.6°F19.2°C 56.8°F13.8°C 71% 6.5 mph W10.5 kmh W 10.5 mph16.9 kmh 29.87 in1011.5 mb 0.00 in0.0 mm 0.00 in0.0 mm 0.00 in0.0 mm
04:33 PM 66.0°F18.9°C 56.7°F13.7°C 72% 5.6 mph WNW9.0 kmh WNW 10.5 mph16.9 kmh 29.87 in1011.5 mb 0.00 in0.0 mm 0.00 in0.0 mm 0.00 in0.0 mm
04:38 PM 65.8°F18.8°C 57.0°F13.9°C 73% 4.0 mph SW6.4 kmh SW 9.6 mph15.4 kmh 29.87 in1011.5 mb 0.00 in0.0 mm 0.00 in0.0 mm 0.00 in0.0 mm
04:44 PM 65.3°F18.5°C 56.8°F13.8°C 74% 3.4 mph NW5.5 kmh NW 9.6 mph15.4 kmh 29.87 in1011.5 mb 0.00 in0.0 mm 0.00 in0.0 mm 0.00 in0.0 mm
04:49 PM 64.8°F18.2°C 56.3°F13.5°C 74% 3.8 mph NW6.1 kmh NW 10.5 mph16.9 kmh 29.87 in1011.5 mb 0.00 in0.0 mm 0.00 in0.0 mm 0.00 in0.0 mm
04:54 PM 64.6°F18.1°C 56.5°F13.6°C 75% 4.9 mph W7.9 kmh W 9.6 mph15.4 kmh 29.87 in1011.5 mb 0.00 in0.0 mm 0.00 in0.0 mm 0.00 in0.0 mm
04:59 PM 64.9°F18.3°C 56.5°F13.6°C 74% 3.1 mph NW5.0 kmh NW 8.5 mph13.7 kmh 29.86 in1011.2 mb 0.00 in0.0 mm 0.00 in0.0 mm 0.00 in0.0 mm
05:04 PM 64.9°F18.3°C 56.8°F13.8°C 75% 2.7 mph SW4.3 kmh SW 7.4 mph11.9 kmh 29.86 in1011.2 mb 0.00 in0.0 mm 0.00 in0.0 mm 0.00 in0.0 mm
05:09 PM 64.9°F18.3°C 56.5°F13.6°C 74% 4.7 mph W7.6 kmh W 7.4 mph11.9 kmh 29.86 in1011.2 mb 0.00 in0.0 mm 0.00 in0.0 mm 0.00 in0.0 mm
05:14 PM 65.1°F18.4°C 57.0°F13.9°C 75% 1.6 mph NW2.6 kmh NW 9.6 mph15.4 kmh 29.86 in1011.2 mb 0.00 in0.0 mm 0.00 in0.0 mm 0.00 in0.0 mm
05:19 PM 64.9°F18.3°C 56.1°F13.4°C 73% 6.3 mph NW10.1 kmh NW 9.6 mph15.4 kmh 29.86 in1011.2 mb 0.00 in0.0 mm 0.00 in0.0 mm 0.00 in0.0 mm
05:24 PM 64.9°F18.3°C 56.8°F13.8°C 75% 3.1 mph NW5.0 kmh NW 12.8 mph20.6 kmh 29.86 in1011.2 mb 0.00 in0.0 mm 0.00 in0.0 mm 0.00 in0.0 mm
05:29 PM 64.8°F18.2°C 56.7°F13.7°C 75% 3.1 mph NW5.0 kmh NW 10.5 mph16.9 kmh 29.86 in1011.2 mb 0.00 in0.0 mm 0.00 in0.0 mm 0.00 in0.0 mm
05:34 PM 64.8°F18.2°C 56.3°F13.5°C 74% 4.5 mph WSW7.2 kmh WSW 8.5 mph13.7 kmh 29.86 in1011.2 mb 0.00 in0.0 mm 0.00 in0.0 mm 0.00 in0.0 mm
05:39 PM 64.9°F18.3°C 56.5°F13.6°C 74% 2.0 mph NW3.2 kmh NW 7.4 mph11.9 kmh 29.86 in1011.2 mb 0.00 in0.0 mm 0.00 in0.0 mm 0.00 in0.0 mm
05:44 PM 64.6°F18.1°C 56.1°F13.4°C 74% 3.6 mph W5.8 kmh W 9.6 mph15.4 kmh 29.86 in1011.2 mb 0.00 in0.0 mm 0.00 in0.0 mm 0.00 in0.0 mm
05:49 PM 64.6°F18.1°C 56.1°F13.4°C 74% 3.8 mph NW6.1 kmh NW 9.6 mph15.4 kmh 29.87 in1011.5 mb 0.00 in0.0 mm 0.00 in0.0 mm 0.00 in0.0 mm
05:54 PM 64.2°F17.9°C 56.1°F13.4°C 75% 4.7 mph NW7.6 kmh NW 7.4 mph11.9 kmh 29.86 in1011.2 mb 0.00 in0.0 mm 0.00 in0.0 mm 0.00 in0.0 mm
05:59 PM 64.0°F17.8°C 55.9°F13.3°C 75% 2.9 mph NW4.7 kmh NW 6.3 mph10.1 kmh 29.86 in1011.2 mb 0.00 in0.0 mm 0.00 in0.0 mm 0.00 in0.0 mm
06:04 PM 63.7°F17.6°C 55.9°F13.3°C 76% 4.3 mph WNW6.9 kmh WNW 8.5 mph13.7 kmh 29.86 in1011.2 mb 0.00 in0.0 mm 0.00 in0.0 mm 0.00 in0.0 mm
06:09 PM 63.7°F17.6°C 55.9°F13.3°C 76% 3.4 mph NW5.5 kmh NW 8.5 mph13.7 kmh 29.86 in1011.2 mb 0.00 in0.0 mm 0.00 in0.0 mm 0.00 in0.0 mm
06:14 PM 63.3°F17.4°C 55.9°F13.3°C 77% 3.8 mph NW6.1 kmh NW 7.4 mph11.9 kmh 29.86 in1011.2 mb 0.00 in0.0 mm 0.00 in0.0 mm 0.00 in0.0 mm
06:19 PM 63.0°F17.2°C 55.6°F13.1°C 77% 3.8 mph NNW6.1 kmh NNW 8.5 mph13.7 kmh 29.86 in1011.2 mb 0.00 in0.0 mm 0.00 in0.0 mm 0.00 in0.0 mm
06:24 PM 62.6°F17.0°C 55.6°F13.1°C 78% 1.3 mph NW2.1 kmh NW 5.4 mph8.7 kmh 29.86 in1011.2 mb 0.00 in0.0 mm 0.00 in0.0 mm 0.00 in0.0 mm
06:29 PM 62.6°F17.0°C 55.6°F13.1°C 78% 2.9 mph NW4.7 kmh NW 7.4 mph11.9 kmh 29.86 in1011.2 mb 0.00 in0.0 mm 0.00 in0.0 mm 0.00 in0.0 mm
06:34 PM 62.2°F16.8°C 55.6°F13.1°C 79% 2.5 mph WNW4.0 kmh WNW 7.4 mph11.9 kmh 29.86 in1011.2 mb 0.00 in0.0 mm 0.00 in0.0 mm 0.00 in0.0 mm
06:39 PM 62.1°F16.7°C 55.4°F13.0°C 79% 2.7 mph WSW4.3 kmh WSW 4.3 mph6.9 kmh 29.86 in1011.2 mb 0.00 in0.0 mm 0.00 in0.0 mm 0.00 in0.0 mm
06:44 PM 61.9°F16.6°C 55.2°F12.9°C 79% 3.8 mph WSW6.1 kmh WSW 7.4 mph11.9 kmh 29.86 in1011.2 mb 0.00 in0.0 mm 0.00 in0.0 mm 0.00 in0.0 mm
06:49 PM 61.7°F16.5°C 55.4°F13.0°C 80% 2.5 mph WNW4.0 kmh WNW 5.4 mph8.7 kmh 29.86 in1011.2 mb 0.00 in0.0 mm 0.00 in0.0 mm 0.00 in0.0 mm
06:54 PM 61.5°F16.4°C 55.2°F12.9°C 80% 3.6 mph WNW5.8 kmh WNW 6.3 mph10.1 kmh 29.86 in1011.2 mb 0.00 in0.0 mm 0.00 in0.0 mm 0.00 in0.0 mm
06:59 PM 61.5°F16.4°C 55.2°F12.9°C 80% 3.1 mph W5.0 kmh W 5.4 mph8.7 kmh 29.86 in1011.2 mb 0.00 in0.0 mm 0.00 in0.0 mm 0.00 in0.0 mm
07:04 PM 61.5°F16.4°C 55.2°F12.9°C 80% 3.6 mph W5.8 kmh W 7.4 mph11.9 kmh 29.86 in1011.2 mb 0.00 in0.0 mm 0.00 in0.0 mm 0.00 in0.0 mm
07:09 PM 61.3°F16.3°C 55.4°F13.0°C 81% 2.5 mph NW4.0 kmh NW 7.4 mph11.9 kmh 29.86 in1011.2 mb 0.00 in0.0 mm 0.00 in0.0 mm 0.00 in0.0 mm
07:14 PM 61.3°F16.3°C 55.4°F13.0°C 81% 3.1 mph W5.0 kmh W 7.4 mph11.9 kmh 29.87 in1011.5 mb 0.00 in0.0 mm 0.00 in0.0 mm 0.00 in0.0 mm
07:19 PM 61.3°F16.3°C 55.4°F13.0°C 81% 2.9 mph NW4.7 kmh NW 6.3 mph10.1 kmh 29.87 in1011.5 mb 0.00 in0.0 mm 0.00 in0.0 mm 0.00 in0.0 mm
07:24 PM 61.2°F16.2°C 55.2°F12.9°C 81% 4.0 mph NW6.4 kmh NW 8.5 mph13.7 kmh 29.87 in1011.5 mb 0.00 in0.0 mm 0.00 in0.0 mm 0.00 in0.0 mm
07:29 PM 61.2°F16.2°C 55.2°F12.9°C 81% 3.8 mph WSW6.1 kmh WSW 7.4 mph11.9 kmh 29.88 in1011.9 mb 0.00 in0.0 mm 0.00 in0.0 mm 0.00 in0.0 mm
07:34 PM 61.2°F16.2°C 55.2°F12.9°C 81% 3.6 mph WNW5.8 kmh WNW 8.5 mph13.7 kmh 29.87 in1011.5 mb 0.00 in0.0 mm 0.00 in0.0 mm 0.00 in0.0 mm
07:39 PM 61.2°F16.2°C 55.2°F12.9°C 81% 4.9 mph W7.9 kmh W 9.6 mph15.4 kmh 29.88 in1011.9 mb 0.00 in0.0 mm 0.00 in0.0 mm 0.00 in0.0 mm
07:44 PM 61.2°F16.2°C 55.2°F12.9°C 81% 3.8 mph NW6.1 kmh NW 6.3 mph10.1 kmh 29.88 in1011.9 mb 0.00 in0.0 mm 0.00 in0.0 mm 0.00 in0.0 mm
07:49 PM 61.2°F16.2°C 55.2°F12.9°C 81% 3.6 mph NNW5.8 kmh NNW 6.3 mph10.1 kmh 29.88 in1011.9 mb 0.00 in0.0 mm 0.00 in0.0 mm 0.00 in0.0 mm
07:54 PM 61.2°F16.2°C 55.2°F12.9°C 81% 0.9 mph SW1.4 kmh SW 6.3 mph10.1 kmh 29.88 in1011.9 mb 0.00 in0.0 mm 0.00 in0.0 mm 0.00 in0.0 mm
07:59 PM 61.0°F16.1°C 55.0°F12.8°C 81% 2.9 mph WNW4.7 kmh WNW 6.3 mph10.1 kmh 29.88 in1011.9 mb 0.00 in0.0 mm 0.00 in0.0 mm 0.00 in0.0 mm
08:04 PM 61.0°F16.1°C 55.0°F12.8°C 81% 2.5 mph WSW4.0 kmh WSW 5.4 mph8.7 kmh 29.88 in1011.9 mb 0.00 in0.0 mm 0.00 in0.0 mm 0.00 in0.0 mm
08:09 PM 60.8°F16.0°C 54.9°F12.7°C 81% 3.1 mph W5.0 kmh W 6.3 mph10.1 kmh 29.88 in1011.9 mb 0.00 in0.0 mm 0.00 in0.0 mm 0.00 in0.0 mm
08:14 PM 60.8°F16.0°C 54.9°F12.7°C 81% 0.4 mph WSW0.6 kmh WSW 5.4 mph8.7 kmh 29.88 in1011.9 mb 0.00 in0.0 mm 0.00 in0.0 mm 0.00 in0.0 mm
08:19 PM 61.0°F16.1°C 55.0°F12.8°C 81% 2.7 mph NW4.3 kmh NW 5.4 mph8.7 kmh 29.88 in1011.9 mb 0.00 in0.0 mm 0.00 in0.0 mm 0.00 in0.0 mm
08:24 PM 60.8°F16.0°C 54.9°F12.7°C 81% 3.4 mph WNW5.5 kmh WNW 6.3 mph10.1 kmh 29.88 in1011.9 mb 0.00 in0.0 mm 0.00 in0.0 mm 0.00 in0.0 mm
08:29 PM 60.8°F16.0°C 55.2°F12.9°C 82% 2.2 mph W3.5 kmh W 4.3 mph6.9 kmh 29.88 in1011.9 mb 0.00 in0.0 mm 0.00 in0.0 mm 0.00 in0.0 mm
08:34 PM 60.6°F15.9°C 54.7°F12.6°C 81% 2.9 mph W4.7 kmh W 5.4 mph8.7 kmh 29.88 in1011.9 mb 0.00 in0.0 mm 0.00 in0.0 mm 0.00 in0.0 mm
08:39 PM 60.6°F15.9°C 55.0°F12.8°C 82% 2.2 mph NW3.5 kmh NW 5.4 mph8.7 kmh 29.88 in1011.9 mb 0.00 in0.0 mm 0.00 in0.0 mm 0.00 in0.0 mm
08:44 PM 60.6°F15.9°C 54.7°F12.6°C 81% 3.4 mph NW5.5 kmh NW 6.3 mph10.1 kmh 29.89 in1012.2 mb 0.00 in0.0 mm 0.00 in0.0 mm 0.00 in0.0 mm
08:49 PM 60.4°F15.8°C 54.9°F12.7°C 82% 0.9 mph WNW1.4 kmh WNW 6.3 mph10.1 kmh 29.90 in1012.5 mb 0.00 in0.0 mm 0.00 in0.0 mm 0.00 in0.0 mm
08:54 PM 60.4°F15.8°C 54.5°F12.5°C 81% 2.9 mph W4.7 kmh W 6.3 mph10.1 kmh 29.90 in1012.5 mb 0.00 in0.0 mm 0.00 in0.0 mm 0.00 in0.0 mm
08:59 PM 60.4°F15.8°C 54.9°F12.7°C 82% 1.8 mph NW2.9 kmh NW 4.3 mph6.9 kmh 29.90 in1012.5 mb 0.00 in0.0 mm 0.00 in0.0 mm 0.00 in0.0 mm
09:04 PM 60.4°F15.8°C 54.9°F12.7°C 82% 3.8 mph NNW6.1 kmh NNW 5.4 mph8.7 kmh 29.90 in1012.5 mb 0.00 in0.0 mm 0.00 in0.0 mm 0.00 in0.0 mm
09:09 PM 60.3°F15.7°C 54.7°F12.6°C 82% 1.3 mph WNW2.1 kmh WNW 5.4 mph8.7 kmh 29.90 in1012.5 mb 0.00 in0.0 mm 0.00 in0.0 mm 0.00 in0.0 mm
09:14 PM 60.4°F15.8°C 54.9°F12.7°C 82% 2.2 mph NW3.5 kmh NW 5.4 mph8.7 kmh 29.90 in1012.5 mb 0.00 in0.0 mm 0.00 in0.0 mm 0.00 in0.0 mm
09:19 PM 60.3°F15.7°C 54.7°F12.6°C 82% 2.7 mph NW4.3 kmh NW 5.4 mph8.7 kmh 29.90 in1012.5 mb 0.00 in0.0 mm 0.00 in0.0 mm 0.00 in0.0 mm
09:24 PM 60.3°F15.7°C 54.7°F12.6°C 82% 2.7 mph NW4.3 kmh NW 4.3 mph6.9 kmh 29.90 in1012.5 mb 0.00 in0.0 mm 0.00 in0.0 mm 0.00 in0.0 mm
09:29 PM 60.3°F15.7°C 54.7°F12.6°C 82% 0.2 mph NW0.3 kmh NW 4.3 mph6.9 kmh 29.91 in1012.9 mb 0.00 in0.0 mm 0.00 in0.0 mm 0.00 in0.0 mm
09:34 PM 60.3°F15.7°C 54.7°F12.6°C 82% 1.1 mph WNW1.8 kmh WNW 4.3 mph6.9 kmh 29.91 in1012.9 mb 0.00 in0.0 mm 0.00 in0.0 mm 0.00 in0.0 mm
09:39 PM 60.3°F15.7°C 54.7°F12.6°C 82% 1.1 mph NW1.8 kmh NW 3.1 mph5.0 kmh 29.90 in1012.5 mb 0.00 in0.0 mm 0.00 in0.0 mm 0.00 in0.0 mm
09:44 PM 60.4°F15.8°C 54.9°F12.7°C 82% 2.0 mph WNW3.2 kmh WNW 4.3 mph6.9 kmh 29.91 in1012.9 mb 0.00 in0.0 mm 0.00 in0.0 mm 0.00 in0.0 mm
09:49 PM 60.3°F15.7°C 54.7°F12.6°C 82% 1.3 mph NNW2.1 kmh NNW 2.0 mph3.2 kmh 29.91 in1012.9 mb 0.00 in0.0 mm 0.00 in0.0 mm 0.00 in0.0 mm
09:54 PM 60.3°F15.7°C 54.7°F12.6°C 82% 0.2 mph NW0.3 kmh NW 2.0 mph3.2 kmh 29.90 in1012.5 mb 0.00 in0.0 mm 0.00 in0.0 mm 0.00 in0.0 mm
09:59 PM 60.3°F15.7°C 54.7°F12.6°C 82% Calm Calm 2.0 mph3.2 kmh 29.90 in1012.5 mb 0.00 in0.0 mm 0.00 in0.0 mm 0.00 in0.0 mm
10:04 PM 60.3°F15.7°C 54.7°F12.6°C 82% 0.7 mph WSW1.1 kmh WSW 2.0 mph3.2 kmh 29.90 in1012.5 mb 0.00 in0.0 mm 0.00 in0.0 mm 0.00 in0.0 mm
10:09 PM 60.3°F15.7°C 54.7°F12.6°C 82% 0.9 mph W1.4 kmh W 2.0 mph3.2 kmh 29.90 in1012.5 mb 0.00 in0.0 mm 0.00 in0.0 mm 0.00 in0.0 mm
10:14 PM 60.3°F15.7°C 54.7°F12.6°C 82% Calm Calm 2.0 mph3.2 kmh 29.90 in1012.5 mb 0.00 in0.0 mm 0.00 in0.0 mm 0.00 in0.0 mm
10:19 PM 60.3°F15.7°C 54.7°F12.6°C 82% Calm Calm 1.1 mph1.8 kmh 29.90 in1012.5 mb 0.00 in0.0 mm 0.00 in0.0 mm 0.00 in0.0 mm
10:24 PM 60.3°F15.7°C 54.7°F12.6°C 82% Calm Calm -- 29.90 in1012.5 mb 0.00 in0.0 mm 0.00 in0.0 mm 0.00 in0.0 mm
10:29 PM 60.3°F15.7°C 54.7°F12.6°C 82% 0.2 mph NW0.3 kmh NW 1.1 mph1.8 kmh 29.90 in1012.5 mb 0.00 in0.0 mm 0.00 in0.0 mm 0.00 in0.0 mm
10:34 PM 60.3°F15.7°C 54.7°F12.6°C 82% 1.6 mph NW2.6 kmh NW 3.1 mph5.0 kmh 29.90 in1012.5 mb 0.00 in0.0 mm 0.00 in0.0 mm 0.00 in0.0 mm
10:39 PM 60.3°F15.7°C 54.7°F12.6°C 82% 1.1 mph WNW1.8 kmh WNW 3.1 mph5.0 kmh 29.90 in1012.5 mb 0.00 in0.0 mm 0.00 in0.0 mm 0.00 in0.0 mm
10:44 PM 60.3°F15.7°C 54.7°F12.6°C 82% 0.4 mph NW0.6 kmh NW 2.0 mph3.2 kmh 29.90 in1012.5 mb 0.00 in0.0 mm 0.00 in0.0 mm 0.00 in0.0 mm
10:49 PM 60.3°F15.7°C 54.7°F12.6°C 82% 2.0 mph WNW3.2 kmh WNW 3.1 mph5.0 kmh 29.89 in1012.2 mb 0.00 in0.0 mm 0.00 in0.0 mm 0.00 in0.0 mm
10:54 PM 60.3°F15.7°C 54.7°F12.6°C 82% 1.3 mph NW2.1 kmh NW 4.3 mph6.9 kmh 29.89 in1012.2 mb 0.00 in0.0 mm 0.00 in0.0 mm 0.00 in0.0 mm
10:59 PM 60.3°F15.7°C 54.7°F12.6°C 82% 1.1 mph WNW1.8 kmh WNW 3.1 mph5.0 kmh 29.89 in1012.2 mb 0.00 in0.0 mm 0.00 in0.0 mm 0.00 in0.0 mm
11:04 PM 60.3°F15.7°C 54.7°F12.6°C 82% 1.6 mph NW2.6 kmh NW 3.1 mph5.0 kmh 29.89 in1012.2 mb 0.00 in0.0 mm 0.00 in0.0 mm 0.00 in0.0 mm
11:09 PM 60.3°F15.7°C 54.7°F12.6°C 82% 0.2 mph NW0.3 kmh NW 3.1 mph5.0 kmh 29.89 in1012.2 mb 0.00 in0.0 mm 0.00 in0.0 mm 0.00 in0.0 mm
11:14 PM 60.3°F15.7°C 54.7°F12.6°C 82% 1.8 mph NW2.9 kmh NW 3.1 mph5.0 kmh 29.89 in1012.2 mb 0.00 in0.0 mm 0.00 in0.0 mm 0.00 in0.0 mm
11:19 PM 60.3°F15.7°C 54.7°F12.6°C 82% 2.0 mph NW3.2 kmh NW 4.3 mph6.9 kmh 29.89 in1012.2 mb 0.00 in0.0 mm 0.00 in0.0 mm 0.00 in0.0 mm
11:24 PM 60.3°F15.7°C 54.7°F12.6°C 82% 0.7 mph NW1.1 kmh NW 3.1 mph5.0 kmh 29.89 in1012.2 mb 0.00 in0.0 mm 0.00 in0.0 mm 0.00 in0.0 mm
11:29 PM 60.3°F15.7°C 54.7°F12.6°C 82% 1.6 mph NW2.6 kmh NW 4.3 mph6.9 kmh 29.89 in1012.2 mb 0.00 in0.0 mm 0.00 in0.0 mm 0.00 in0.0 mm
11:34 PM 60.3°F15.7°C 54.7°F12.6°C 82% 2.5 mph NW4.0 kmh NW 4.3 mph6.9 kmh 29.89 in1012.2 mb 0.00 in0.0 mm 0.00 in0.0 mm 0.00 in0.0 mm
11:39 PM 60.3°F15.7°C 54.7°F12.6°C 82% 0.4 mph WSW0.6 kmh WSW 3.1 mph5.0 kmh 29.89 in1012.2 mb 0.00 in0.0 mm 0.00 in0.0 mm 0.00 in0.0 mm
11:44 PM 60.3°F15.7°C 54.7°F12.6°C 82% 0.9 mph W1.4 kmh W 3.1 mph5.0 kmh 29.89 in1012.2 mb 0.00 in0.0 mm 0.00 in0.0 mm 0.00 in0.0 mm
11:49 PM 60.3°F15.7°C 54.7°F12.6°C 82% 1.6 mph WNW2.6 kmh WNW 3.1 mph5.0 kmh 29.89 in1012.2 mb 0.00 in0.0 mm 0.00 in0.0 mm 0.00 in0.0 mm
11:54 PM 60.3°F15.7°C 54.7°F12.6°C 82% 0.9 mph W1.4 kmh W 3.1 mph5.0 kmh 29.89 in1012.2 mb 0.00 in0.0 mm 0.00 in0.0 mm 0.00 in0.0 mm
11:59 PM 60.3°F15.7°C 54.7°F12.6°C 82% 1.6 mph NW2.6 kmh NW 4.3 mph6.9 kmh 29.89 in1012.2 mb 0.00 in0.0 mm 0.00 in0.0 mm 0.00 in0.0 mm